Terminal Aerodrome Forecast
Issued by NWS Cleveland, OH

Home | Current Version | Previous Version | Text Only | Print | Product List | Glossary Off
Versions: 1 2 3 4 5 6 7 8 9 10 11 12 13 14 15 16 17 18 19

373
FTUS41 KCLE 121134
TAFCAK
TAF
KCAK 121134Z 1212/1312 21008KT P6SM SCT035 OVC100
     FM121800 24014G24KT 6SM -SN OVC035
     FM122200 27018G28KT 2SM -SN OVC012
     FM130600 32015G25KT 3SM -SN OVC025=

USA.gov is the U.S. government's official web portal to all federal, state and local government web resources and services.